Cat Lake, Canada
Current Conditions -  °F | °C
As of 9:00 PM on Thursday 30 Oct 2014 (Local Time) from CYPL Reporting Station
Light Snow Light Snow  
Wind Chill: 16°   Ceiling: 1800
Heat Index: 25°   Visibility: 12mi
Dew Point: 21°   Wind: 8mph
Humidity: 86%   Direction: 350°N
Pressure: 30.34"   Gusts: 20mph
Location:  51.72°N, 91.8°W
Report Text: CYPL 310200Z 35007G17KT 310V050 12SM -SN BKN018 M04/M06 A3034 RMK SC6 LAST OBS/NEXT 311100Z SLP300
Loading
Personal Weather Stations






























Interactive Weather Map
Tropical Storm Tracking
New forecast layout! Learn more

10-Day Weather Forecast

Advertisements
Track Severe Weather on mobile